Time;durP1;ratioP1;P1;durP2;ratioP2;P2;SDS_P1;SDS_P2;PMS_P1;PMS_P2;Temp;Humidity;BMP_temperature;BMP_pressure;BME280_temperature;BME280_humidity;BME280_pressure;Samples;Min_cycle;Max_cycle;Signal;HPM_P1;HPM_P2
2022/02/01 00:01:14;;;;;;;13.25;8.35;;;5.90;99.90;;;;;;4919619;29;20352;-76
2022/02/01 00:03:42;;;;;;;15.32;8.90;;;5.90;99.90;;;;;;4919128;29;20481;-76
2022/02/01 00:06:15;;;;;;;13.35;9.10;;;5.80;99.90;;;;;;4919336;29;20028;-76
2022/02/01 00:08:49;;;;;;;18.92;10.95;;;5.80;99.90;;;;;;4919682;29;20017;-76
2022/02/01 00:19:19;;;;;;;18.27;11.57;;;5.70;99.90;;;;;;4919231;29;20035;-76
2022/02/01 00:35:46;;;;;;;19.73;11.38;;;5.50;99.90;;;;;;4918800;29;20027;-76
2022/02/01 00:38:23;;;;;;;18.70;10.40;;;5.50;99.90;;;;;;4918638;29;20032;-75
2022/02/01 00:41:02;;;;;;;14.25;8.18;;;5.30;99.90;;;;;;4918612;29;20059;-76
2022/02/01 00:43:28;;;;;;;17.23;7.60;;;5.10;99.90;;;;;;4918871;29;20032;-76
2022/02/01 00:45:54;;;;;;;11.95;7.03;;;5.00;99.90;;;;;;4919054;29;20036;-76
2022/02/01 00:48:19;;;;;;;10.35;5.80;;;4.80;99.90;;;;;;4918942;29;20032;-76
2022/02/01 00:50:45;;;;;;;9.75;6.10;;;4.80;99.90;;;;;;4918049;29;20032;-76
2022/02/01 00:53:11;;;;;;;9.10;5.85;;;4.80;99.90;;;;;;4918270;29;20469;-76
2022/02/01 00:55:36;;;;;;;9.80;5.50;;;4.80;99.90;;;;;;4917955;29;20024;-76
2022/02/01 00:58:02;;;;;;;16.60;9.00;;;4.90;99.90;;;;;;4918085;29;20028;-76
2022/02/01 01:00:28;;;;;;;6.10;4.70;;;4.90;99.90;;;;;;4918690;29;20481;-76
2022/02/01 01:02:54;;;;;;;6.28;4.28;;;5.00;99.90;;;;;;4918812;29;20036;-76
2022/02/01 01:05:19;;;;;;;8.30;4.60;;;5.00;99.90;;;;;;4918429;29;20079;-76
2022/02/01 01:07:45;;;;;;;7.97;4.72;;;5.10;99.90;;;;;;4917537;29;20035;-76
2022/02/01 01:10:12;;;;;;;10.82;4.88;;;5.10;99.90;;;;;;4900411;29;20024;-75
2022/02/01 01:12:49;;;;;;;8.77;5.05;;;5.20;99.90;;;;;;4918073;29;20020;-76
2022/02/01 01:15:22;;;;;;;7.68;4.40;;;5.20;99.90;;;;;;4918198;29;20115;-76
2022/02/01 01:18:23;;;;;;;6.82;4.68;;;5.20;99.90;;;;;;4918232;29;20501;-76
2022/02/01 01:55:16;;;;;;;9.80;4.90;;;5.40;99.90;;;;;;4917611;29;20025;-76
2022/02/01 01:57:43;;;;;;;8.82;5.15;;;5.40;99.90;;;;;;4917385;29;20056;-76
2022/02/01 02:00:22;;;;;;;9.40;4.75;;;5.30;99.90;;;;;;4917536;29;20031;-77
2022/02/01 02:02:48;;;;;;;8.13;5.05;;;5.30;99.90;;;;;;4917511;29;20067;-76
2022/02/01 02:05:13;;;;;;;8.52;5.13;;;5.30;99.90;;;;;;4916903;29;20493;-76
2022/02/01 02:07:39;;;;;;;10.63;5.72;;;5.20;99.90;;;;;;4917431;29;20511;-76
2022/02/01 02:10:06;;;;;;;11.15;5.90;;;5.20;99.90;;;;;;4917357;29;20039;-76
2022/02/01 02:15:26;;;;;;;7.00;4.93;;;5.10;99.90;;;;;;4917413;29;20433;-76
2022/02/01 02:17:52;;;;;;;7.22;4.68;;;5.10;99.90;;;;;;4917177;29;20127;-76
2022/02/01 02:20:22;;;;;;;7.15;4.55;;;5.20;99.90;;;;;;4917045;29;20119;-75
2022/02/01 02:22:48;;;;;;;12.63;4.70;;;5.10;99.90;;;;;;4918210;29;20084;-76
2022/02/01 02:25:13;;;;;;;17.70;4.85;;;5.10;99.90;;;;;;4917024;29;20583;-76
2022/02/01 02:27:39;;;;;;;6.13;4.25;;;5.00;99.90;;;;;;4916834;29;20499;-76
2022/02/01 02:30:05;;;;;;;6.85;4.25;;;5.00;99.90;;;;;;4916231;29;20055;-76
2022/02/01 02:32:31;;;;;;;11.60;4.32;;;4.90;99.90;;;;;;4916657;29;20028;-76
2022/02/01 02:34:57;;;;;;;7.85;4.65;;;4.90;99.90;;;;;;4916718;29;20465;-76
2022/02/01 02:37:29;;;;;;;5.07;3.83;;;4.90;99.90;;;;;;4916468;29;20536;-76
2022/02/01 02:40:18;;;;;;;7.68;3.60;;;4.90;99.90;;;;;;4916417;29;20478;-76
2022/02/01 02:45:27;;;;;;;5.70;4.00;;;5.00;99.90;;;;;;4916995;29;20043;-76
2022/02/01 02:47:54;;;;;;;7.65;5.30;;;4.90;99.90;;;;;;4916744;29;20020;-76
2022/02/01 02:50:22;;;;;;;11.48;6.13;;;4.90;99.90;;;;;;4916279;29;20034;-76
2022/02/01 02:52:48;;;;;;;9.00;5.38;;;4.80;99.90;;;;;;4899491;29;20473;-76
2022/02/01 02:55:14;;;;;;;8.32;4.25;;;4.70;99.90;;;;;;4916804;29;20023;-75
2022/02/01 02:57:39;;;;;;;7.20;4.32;;;4.70;99.90;;;;;;4916830;29;20392;-76
2022/02/01 03:00:06;;;;;;;8.18;4.50;;;4.70;99.90;;;;;;4916039;29;20063;-75
2022/02/01 03:02:33;;;;;;;13.32;5.35;;;4.70;99.90;;;;;;4916150;29;20483;-76
2022/02/01 03:04:59;;;;;;;7.90;4.45;;;4.70;99.90;;;;;;4916746;29;20397;-76
2022/02/01 03:07:24;;;;;;;8.38;4.50;;;4.70;99.90;;;;;;4916410;29;20028;-76
2022/02/01 03:09:50;;;;;;;6.85;4.25;;;4.70;99.90;;;;;;4916450;29;20024;-76
2022/02/01 03:12:23;;;;;;;8.32;4.72;;;4.70;99.90;;;;;;4914804;29;20024;-76
2022/02/01 03:14:58;;;;;;;8.80;4.65;;;4.70;99.90;;;;;;4916256;29;20021;-75
2022/02/01 03:20:13;;;;;;;6.72;4.18;;;4.70;99.90;;;;;;4872164;29;20036;-76
2022/02/01 03:22:39;;;;;;;6.35;3.80;;;4.70;99.90;;;;;;4916378;29;20413;-75
2022/02/01 03:25:05;;;;;;;5.05;3.42;;;4.80;99.90;;;;;;4916741;29;20047;-76
2022/02/01 03:27:31;;;;;;;7.47;3.17;;;4.80;99.90;;;;;;4916153;29;20453;-76
2022/02/01 03:29:57;;;;;;;6.35;3.20;;;4.80;99.90;;;;;;4916180;29;20111;-76
2022/02/01 03:32:23;;;;;;;8.90;4.88;;;4.90;99.90;;;;;;4915941;29;20016;-77
2022/02/01 03:34:50;;;;;;;7.53;4.78;;;4.90;99.90;;;;;;4916184;29;20061;-75
2022/02/01 03:37:17;;;;;;;9.07;4.88;;;5.00;99.90;;;;;;4916095;29;20039;-75
2022/02/01 03:39:43;;;;;;;12.70;6.47;;;5.10;99.90;;;;;;4916252;29;20051;-76
2022/02/01 03:42:10;;;;;;;9.15;4.97;;;5.10;99.90;;;;;;4898762;29;20449;-76
2022/02/01 03:44:36;;;;;;;5.43;3.67;;;5.10;99.90;;;;;;4915848;29;20040;-75
2022/02/01 03:47:02;;;;;;;9.00;3.72;;;4.90;99.90;;;;;;4915912;29;20076;-75
2022/02/01 03:49:33;;;;;;;6.15;4.00;;;4.80;99.90;;;;;;4916208;29;20036;-76
2022/02/01 03:51:59;;;;;;;6.90;3.90;;;4.70;99.90;;;;;;4916161;29;20035;-76
2022/02/01 03:54:29;;;;;;;6.93;3.72;;;4.70;99.90;;;;;;4916323;29;20028;-76
2022/02/01 03:56:55;;;;;;;10.57;5.22;;;4.70;99.90;;;;;;4915982;29;20024;-75
2022/02/01 03:59:23;;;;;;;11.05;4.95;;;4.80;99.90;;;;;;4916030;29;20036;-75
2022/02/01 04:01:50;;;;;;;9.73;4.85;;;4.80;99.90;;;;;;4916205;29;20032;-76
2022/02/01 04:04:16;;;;;;;7.07;4.78;;;4.80;99.90;;;;;;4916064;29;20497;-76
2022/02/01 04:06:42;;;;;;;7.13;4.28;;;4.80;99.90;;;;;;4915441;29;20056;-75
2022/02/01 04:09:07;;;;;;;6.80;4.32;;;4.70;99.90;;;;;;4915874;29;20481;-76
2022/02/01 04:11:33;;;;;;;6.40;4.15;;;4.70;99.90;;;;;;4915792;29;20052;-75
2022/02/01 04:13:59;;;;;;;6.63;4.53;;;4.70;99.90;;;;;;4915758;29;20028;-76
2022/02/01 04:16:25;;;;;;;8.32;5.15;;;4.70;99.90;;;;;;4915462;29;20050;-76
2022/02/01 04:18:51;;;;;;;13.35;5.00;;;4.60;99.90;;;;;;4915597;29;20024;-75
2022/02/01 04:21:16;;;;;;;12.23;5.32;;;4.60;99.90;;;;;;4915718;29;20048;-76
2022/02/01 04:23:42;;;;;;;15.35;6.28;;;4.60;99.90;;;;;;4915512;29;20064;-75
2022/02/01 04:26:08;;;;;;;13.77;6.35;;;4.60;99.90;;;;;;4915413;29;20732;-75
2022/02/01 04:28:33;;;;;;;9.38;5.90;;;4.60;99.90;;;;;;4917473;29;20116;-75
2022/02/01 04:30:59;;;;;;;5.05;3.63;;;4.50;99.90;;;;;;4919339;29;20389;-76
2022/02/01 04:33:25;;;;;;;6.72;4.13;;;4.40;99.90;;;;;;4919162;29;20024;-76
2022/02/01 04:35:50;;;;;;;10.65;4.72;;;4.40;99.90;;;;;;4918660;29;20032;-75
2022/02/01 04:38:16;;;;;;;6.78;4.47;;;4.40;99.90;;;;;;4918470;29;20028;-76
2022/02/01 04:40:42;;;;;;;6.75;4.18;;;4.30;99.90;;;;;;4918957;29;20032;-76
2022/02/01 04:43:07;;;;;;;8.32;4.25;;;4.30;99.90;;;;;;4918947;29;20044;-76
2022/02/01 04:45:33;;;;;;;7.30;4.55;;;4.30;99.90;;;;;;4921327;29;20055;-76
2022/02/01 04:48:01;;;;;;;6.28;4.05;;;4.30;99.90;;;;;;4918925;29;20044;-76
2022/02/01 04:50:29;;;;;;;11.30;4.40;;;4.30;99.90;;;;;;4901872;29;20442;-76
2022/02/01 04:52:56;;;;;;;8.20;4.70;;;4.20;99.90;;;;;;4918224;29;20021;-76
2022/02/01 04:55:23;;;;;;;6.45;3.83;;;4.20;99.90;;;;;;4918363;29;20028;-76
2022/02/01 04:57:54;;;;;;;6.00;4.03;;;4.20;99.90;;;;;;4917955;29;20358;-76
2022/02/01 05:00:22;;;;;;;7.05;4.43;;;4.20;99.90;;;;;;4918406;29;20032;-76
2022/02/01 05:02:47;;;;;;;5.90;3.35;;;4.30;99.90;;;;;;4918792;29;20020;-76
2022/02/01 05:05:13;;;;;;;4.82;3.35;;;4.30;99.90;;;;;;4918704;29;20036;-75
2022/02/01 05:07:39;;;;;;;8.93;3.30;;;4.30;99.90;;;;;;4918603;29;20028;-75
2022/02/01 05:10:05;;;;;;;6.85;4.05;;;4.40;99.90;;;;;;4918158;29;20420;-76
2022/02/01 05:12:36;;;;;;;5.78;3.38;;;4.40;99.90;;;;;;4918153;29;20024;-76
2022/02/01 05:15:06;;;;;;;5.82;4.07;;;4.40;99.90;;;;;;4918362;29;20106;-76
2022/02/01 05:17:35;;;;;;;4.63;2.97;;;4.40;99.90;;;;;;4929270;29;20051;-76
2022/02/01 05:20:09;;;;;;;4.03;3.40;;;4.50;99.90;;;;;;4936940;29;20032;-76
2022/02/01 05:22:35;;;;;;;6.90;3.85;;;4.50;99.90;;;;;;4936986;29;20491;-76
2022/02/01 05:25:01;;;;;;;9.63;4.32;;;4.40;99.90;;;;;;4936615;29;20028;-76
2022/02/01 05:27:28;;;;;;;11.02;3.63;;;4.40;99.90;;;;;;4936698;29;20026;-76
2022/02/01 05:29:56;;;;;;;11.35;4.93;;;4.40;99.90;;;;;;4937025;29;20028;-76
2022/02/01 05:32:24;;;;;;;5.95;3.75;;;4.40;99.90;;;;;;4937264;29;20369;-76
2022/02/01 05:34:55;;;;;;;5.80;3.90;;;4.30;99.90;;;;;;4919984;29;20028;-76
2022/02/01 05:37:21;;;;;;;5.60;3.20;;;4.30;99.90;;;;;;4919607;29;20031;-76
2022/02/01 05:39:47;;;;;;;4.95;3.63;;;4.20;99.90;;;;;;4936076;29;20057;-76
2022/02/01 05:42:17;;;;;;;7.53;4.05;;;4.20;99.90;;;;;;4937145;29;20094;-75
2022/02/01 05:44:44;;;;;;;11.38;4.47;;;4.20;99.90;;;;;;4936788;29;20040;-76
2022/02/01 05:47:10;;;;;;;9.10;5.00;;;4.20;99.90;;;;;;4936149;29;20028;-76
2022/02/01 05:49:36;;;;;;;6.03;4.00;;;4.20;99.90;;;;;;4936488;29;20060;-76
2022/02/01 05:52:02;;;;;;;19.05;4.68;;;4.20;99.90;;;;;;4935504;29;20024;-75
2022/02/01 05:54:30;;;;;;;7.72;4.70;;;4.20;99.90;;;;;;4936049;29;20517;-76
2022/02/01 05:56:56;;;;;;;8.75;5.28;;;4.20;99.90;;;;;;4936589;29;20034;-75
2022/02/01 05:59:22;;;;;;;11.45;4.85;;;4.20;99.90;;;;;;4936474;29;20519;-77
2022/02/01 06:01:47;;;;;;;12.57;5.50;;;4.20;99.90;;;;;;4936138;29;20111;-75
2022/02/01 06:04:13;;;;;;;10.15;5.53;;;4.20;99.90;;;;;;4936981;29;20126;-75
2022/02/01 06:06:39;;;;;;;14.02;6.07;;;4.20;99.90;;;;;;4936482;29;20468;-75
2022/02/01 06:09:04;;;;;;;10.43;5.18;;;4.20;99.90;;;;;;4936636;29;20572;-74
2022/02/01 06:11:30;;;;;;;8.73;6.03;;;4.20;99.90;;;;;;4936060;29;20024;-76
2022/02/01 06:13:56;;;;;;;8.27;5.50;;;4.20;99.90;;;;;;4936451;29;20028;-75
2022/02/01 06:16:21;;;;;;;15.93;5.72;;;4.20;99.90;;;;;;4935881;29;20048;-76
2022/02/01 06:18:47;;;;;;;11.40;7.28;;;4.20;99.90;;;;;;4918949;29;20102;-75
2022/02/01 06:21:13;;;;;;;13.88;6.90;;;4.20;99.90;;;;;;4936161;29;20027;-75
2022/02/01 06:23:40;;;;;;;10.82;5.90;;;4.20;99.90;;;;;;4936195;29;20035;-75
2022/02/01 06:26:05;;;;;;;10.23;5.18;;;4.10;99.90;;;;;;4935981;29;20055;-75
2022/02/01 06:28:31;;;;;;;7.72;4.82;;;4.10;99.90;;;;;;4935079;29;20425;-76
2022/02/01 06:30:57;;;;;;;6.45;4.57;;;4.00;99.90;;;;;;4935715;29;20485;-74
2022/02/01 06:33:24;;;;;;;10.63;4.65;;;4.00;99.90;;;;;;4935457;29;20032;-75
2022/02/01 06:35:50;;;;;;;7.07;4.47;;;4.10;99.90;;;;;;4935996;29;20480;-75
2022/02/01 06:38:16;;;;;;;10.70;4.70;;;4.10;99.90;;;;;;4935591;29;20032;-75
2022/02/01 06:40:43;;;;;;;9.50;4.32;;;4.10;99.90;;;;;;4935944;29;20358;-74
2022/02/01 06:43:10;;;;;;;7.00;4.28;;;4.10;99.90;;;;;;4935949;29;20047;-74
2022/02/01 06:45:36;;;;;;;7.57;4.68;;;4.20;99.90;;;;;;4935531;29;20114;-75
2022/02/01 06:48:02;;;;;;;10.38;5.18;;;4.10;99.90;;;;;;4935741;29;20486;-76
2022/02/01 06:50:28;;;;;;;9.40;5.07;;;4.20;99.90;;;;;;4918363;29;20040;-75
2022/02/01 06:52:57;;;;;;;15.85;4.78;;;4.20;99.90;;;;;;4935635;29;20107;-75
2022/02/01 06:55:43;;;;;;;10.15;5.78;;;4.30;99.90;;;;;;4934938;29;20024;-75
2022/02/01 06:58:14;;;;;;;10.23;4.75;;;4.60;99.90;;;;;;4934812;29;20024;-76
2022/02/01 07:00:40;;;;;;;10.18;4.50;;;5.00;99.90;;;;;;4935707;29;20066;-76
2022/02/01 07:03:06;;;;;;;17.60;5.03;;;5.40;99.90;;;;;;4934663;29;20028;-76
2022/02/01 07:05:32;;;;;;;11.73;6.05;;;5.70;99.90;;;;;;4935753;29;20036;-76
2022/02/01 07:07:58;;;;;;;16.05;5.78;;;6.10;99.90;;;;;;4935700;29;20030;-75
2022/02/01 07:10:23;;;;;;;15.98;4.97;;;6.50;99.90;;;;;;4937207;29;20028;-75
2022/02/01 07:12:49;;;;;;;16.20;8.60;;;6.90;99.90;;;;;;4935165;29;20031;-75
2022/02/01 07:15:15;;;;;;;8.60;5.22;;;7.50;99.90;;;;;;4935475;29;20038;-76
2022/02/01 07:17:52;;;;;;;12.70;8.10;;;8.00;99.90;;;;;;4935178;29;20048;-75
2022/02/01 07:20:19;;;;;;;8.07;5.38;;;8.50;99.90;;;;;;4935583;29;20027;-77
2022/02/01 07:22:47;;;;;;;12.00;6.45;;;8.90;99.90;;;;;;4935151;29;20024;-77
2022/02/01 07:25:22;;;;;;;9.52;5.45;;;9.40;99.90;;;;;;4935504;29;20110;-77
2022/02/01 07:27:48;;;;;;;10.93;3.60;;;9.90;99.90;;;;;;4931125;29;20030;-76
2022/02/01 07:30:19;;;;;;;6.60;3.50;;;10.40;99.90;;;;;;4916534;29;20028;-76
2022/02/01 07:32:48;;;;;;;12.43;3.60;;;11.20;99.90;;;;;;4916516;29;20103;-76
2022/02/01 07:35:14;;;;;;;11.90;3.72;;;11.80;99.90;;;;;;4916151;29;20036;-76
2022/02/01 07:37:42;;;;;;;16.08;5.43;;;12.30;99.90;;;;;;4916109;29;20027;-76
2022/02/01 07:40:09;;;;;;;25.65;5.63;;;12.80;99.90;;;;;;4898897;29;20032;-77
2022/02/01 07:42:35;;;;;;;14.65;5.93;;;13.20;99.90;;;;;;4915726;29;20020;-78
2022/02/01 07:45:03;;;;;;;9.63;4.75;;;13.10;99.90;;;;;;4899112;29;20043;-76
2022/02/01 07:47:29;;;;;;;26.35;7.00;;;13.40;99.90;;;;;;4916369;29;20028;-76
2022/02/01 07:49:55;;;;;;;22.90;7.63;;;13.70;99.90;;;;;;4899465;29;20079;-76
2022/02/01 07:52:21;;;;;;;16.25;7.22;;;13.90;99.90;;;;;;4899090;29;20441;-76
2022/02/01 07:54:47;;;;;;;16.77;7.45;;;14.00;99.90;;;;;;4916253;29;20031;-76
2022/02/01 07:57:13;;;;;;;19.05;9.02;;;14.50;99.90;;;;;;4915896;29;20119;-74
2022/02/01 07:59:39;;;;;;;17.98;8.57;;;14.70;99.90;;;;;;4916108;29;20170;-74
2022/02/01 08:02:05;;;;;;;21.80;8.18;;;14.30;99.90;;;;;;4916058;29;20032;-77
2022/02/01 08:04:33;;;;;;;19.40;9.20;;;13.80;99.90;;;;;;4919247;29;20127;-76
2022/02/01 08:07:00;;;;;;;35.05;7.75;;;14.00;99.90;;;;;;4919752;29;20020;-77
2022/02/01 08:09:33;;;;;;;33.25;8.90;;;14.10;99.90;;;;;;4919770;29;20102;-76
2022/02/01 08:11:59;;;;;;;28.40;7.45;;;14.50;99.90;;;;;;4919530;29;20028;-76
2022/02/01 08:17:23;;;;;;;26.27;7.32;;;15.40;99.90;;;;;;4919119;29;20063;-75
2022/02/01 08:20:03;;;;;;;22.67;6.90;;;15.70;99.90;;;;;;4919475;29;20024;-77
2022/02/01 08:25:13;;;;;;;17.88;4.97;;;16.60;99.90;;;;;;4936477;29;20086;-76
2022/02/01 08:27:39;;;;;;;10.45;4.63;;;17.30;99.10;;;;;;4934763;29;20098;-76
2022/02/01 08:30:11;;;;;;;14.82;3.78;;;18.10;96.90;;;;;;4937243;29;20074;-75
2022/02/01 08:32:37;;;;;;;11.32;4.75;;;18.70;95.20;;;;;;4937550;29;20054;-75
2022/02/01 08:35:04;;;;;;;15.38;4.95;;;19.40;94.00;;;;;;4937101;29;20032;-75
2022/02/01 08:37:30;;;;;;;14.77;5.47;;;20.00;92.60;;;;;;4919913;29;20392;-76
2022/02/01 08:39:56;;;;;;;17.83;5.18;;;20.50;90.90;;;;;;4936626;29;20035;-75
2022/02/01 08:42:22;;;;;;;10.82;4.13;;;20.90;89.40;;;;;;4919945;29;20060;-76
2022/02/01 08:44:48;;;;;;;11.85;4.97;;;21.10;86.60;;;;;;4934734;29;20489;-75
2022/02/01 08:47:14;;;;;;;14.45;4.30;;;21.40;84.60;;;;;;4936189;29;20094;-75
2022/02/01 08:49:41;;;;;;;10.85;3.30;;;21.80;83.00;;;;;;4936332;29;20043;-75
2022/02/01 08:52:11;;;;;;;8.18;3.00;;;22.10;79.90;;;;;;4938027;29;20027;-75
2022/02/01 08:54:38;;;;;;;14.35;3.58;;;22.10;78.60;;;;;;4937147;29;20119;-75
2022/02/01 08:57:21;;;;;;;15.40;3.78;;;22.40;76.90;;;;;;4936119;29;20106;-74
2022/02/01 08:59:49;;;;;;;12.27;5.40;;;22.70;75.70;;;;;;4937247;29;20467;-77
2022/02/01 09:02:21;;;;;;;19.63;4.68;;;23.00;74.20;;;;;;4935892;29;20465;-76
2022/02/01 09:04:47;;;;;;;9.77;4.72;;;23.20;73.80;;;;;;4937027;29;20043;-77
2022/02/01 09:07:13;;;;;;;16.58;5.18;;;23.30;72.70;;;;;;4936993;29;20023;-76
2022/02/01 09:09:39;;;;;;;25.83;6.85;;;23.50;72.10;;;;;;4936597;29;20527;-76
2022/02/01 09:12:05;;;;;;;27.60;10.20;;;23.60;71.60;;;;;;4937071;29;20027;-76
2022/02/01 09:14:32;;;;;;;13.63;7.05;;;23.30;71.80;;;;;;4935928;29;20024;-77
2022/02/01 09:17:00;;;;;;;23.83;6.32;;;23.40;71.40;;;;;;4935638;29;20523;-77
2022/02/01 09:19:30;;;;;;;16.70;6.32;;;23.90;70.50;;;;;;4936662;29;20484;-76
2022/02/01 09:21:56;;;;;;;27.92;6.07;;;24.20;69.70;;;;;;4936631;29;20409;-77
2022/02/01 09:24:23;;;;;;;28.80;5.40;;;24.30;68.30;;;;;;4937085;29;20031;-76
2022/02/01 09:26:49;;;;;;;12.43;4.78;;;24.40;67.30;;;;;;4936222;29;20035;-76
2022/02/01 09:29:15;;;;;;;34.38;5.03;;;24.00;66.20;;;;;;4936589;29;20054;-76
2022/02/01 09:31:41;;;;;;;43.35;4.57;;;23.70;68.10;;;;;;4935314;29;20102;-76
2022/02/01 09:34:07;;;;;;;37.03;4.57;;;23.10;67.70;;;;;;4934764;29;20480;-76
2022/02/01 09:36:34;;;;;;;33.90;4.32;;;22.40;68.50;;;;;;4918623;29;20024;-77
2022/02/01 09:38:59;;;;;;;10.95;3.83;;;22.20;69.20;;;;;;4936462;29;20042;-77
2022/02/01 09:41:28;;;;;;;12.38;5.18;;;21.50;68.10;;;;;;4936553;29;20028;-76
2022/02/01 09:43:54;;;;;;;8.00;3.03;;;21.20;68.50;;;;;;4936836;29;20028;-76
2022/02/01 09:46:21;;;;;;;5.93;2.70;;;21.00;67.10;;;;;;4936453;29;20024;-77
2022/02/01 09:48:47;;;;;;;7.32;3.10;;;20.80;66.80;;;;;;4936942;29;20024;-76
2022/02/01 09:51:13;;;;;;;8.90;2.83;;;20.60;67.60;;;;;;4936026;29;20110;-77
2022/02/01 09:53:39;;;;;;;13.63;4.10;;;20.40;68.50;;;;;;4935496;29;20079;-78
2022/02/01 09:56:05;;;;;;;15.80;3.33;;;20.30;68.90;;;;;;4935834;29;20032;-75
2022/02/01 09:58:34;;;;;;;12.65;4.38;;;20.30;69.70;;;;;;4935984;29;20024;-77
2022/02/01 10:01:02;;;;;;;8.50;3.20;;;20.10;69.50;;;;;;4934994;29;20034;-78
2022/02/01 10:03:28;;;;;;;20.83;4.15;;;20.20;70.10;;;;;;4936520;29;20453;-79
2022/02/01 10:06:09;;;;;;;21.48;4.85;;;20.40;70.00;;;;;;4936029;29;20031;-78
2022/02/01 10:08:37;;;;;;;7.10;2.40;;;20.10;65.40;;;;;;4936102;29;20523;-78
2022/02/01 10:11:04;;;;;;;7.45;1.70;;;19.70;64.10;;;;;;4934689;29;20028;-78
2022/02/01 10:13:34;;;;;;;1.60;1.23;;;19.30;61.30;;;;;;4934457;29;20027;-76
2022/02/01 10:16:15;;;;;;;3.97;1.50;;;18.70;62.70;;;;;;4935323;29;20481;-78
2022/02/01 10:18:40;;;;;;;5.47;1.10;;;18.50;62.40;;;;;;4935170;29;20114;-76
2022/02/01 10:21:14;;;;;;;2.30;1.00;;;18.40;62.70;;;;;;4935748;29;20107;-75
2022/02/01 10:23:45;;;;;;;2.70;1.10;;;18.40;62.70;;;;;;4935864;29;20028;-77
2022/02/01 10:26:11;;;;;;;1.88;1.42;;;18.50;62.40;;;;;;4935675;29;20028;-76
2022/02/01 10:28:41;;;;;;;1.70;1.40;;;18.80;62.90;;;;;;4934737;29;20022;-76
2022/02/01 10:31:15;;;;;;;2.58;2.05;;;19.00;61.20;;;;;;4935705;29;20374;-78
2022/02/01 10:36:19;;;;;;;1.75;1.10;;;19.40;59.80;;;;;;4935808;29;20024;-76
2022/02/01 10:38:45;;;;;;;1.70;1.33;;;19.40;60.50;;;;;;4935380;29;20118;-77
2022/02/01 10:41:13;;;;;;;1.63;1.20;;;19.60;59.90;;;;;;4933943;29;20084;-77
2022/02/01 10:43:39;;;;;;;0.90;0.77;;;19.70;59.30;;;;;;4935493;29;20484;-77
2022/02/01 10:46:13;;;;;;;0.73;0.65;;;19.50;58.60;;;;;;4935497;29;20111;-77
2022/02/01 10:48:45;;;;;;;0.70;0.60;;;19.30;58.10;;;;;;4935240;29;20027;-78
2022/02/01 10:51:15;;;;;;;0.50;0.50;;;18.90;58.40;;;;;;4934190;29;20024;-77
2022/02/01 10:53:41;;;;;;;1.77;1.10;;;18.70;59.00;;;;;;4935081;29;20508;-76
2022/02/01 10:56:18;;;;;;;0.70;0.50;;;18.70;59.10;;;;;;4917640;29;20059;-76
2022/02/01 10:58:45;;;;;;;0.77;0.50;;;18.60;58.90;;;;;;4934573;29;20027;-77
2022/02/01 11:01:12;;;;;;;0.90;0.70;;;18.70;59.00;;;;;;4934985;29;20531;-77
2022/02/01 11:03:50;;;;;;;4.63;1.00;;;18.70;59.30;;;;;;4935125;29;20516;-77
2022/02/01 11:06:16;;;;;;;3.03;1.60;;;18.90;59.40;;;;;;4935608;29;20028;-77
2022/02/01 11:08:43;;;;;;;4.55;2.47;;;19.00;65.60;;;;;;4935830;29;20023;-78
2022/02/01 11:11:18;;;;;;;4.53;2.50;;;19.20;72.10;;;;;;4935456;29;20032;-77
2022/02/01 11:13:47;;;;;;;5.22;2.63;;;19.40;72.30;;;;;;4934811;29;20575;-76
2022/02/01 11:16:21;;;;;;;16.83;2.45;;;19.40;75.20;;;;;;4934191;29;20086;-77
2022/02/01 11:19:00;;;;;;;4.45;1.55;;;19.40;75.60;;;;;;4935160;29;20054;-76
2022/02/01 11:21:27;;;;;;;2.67;2.13;;;19.60;71.60;;;;;;4935128;29;20027;-76
2022/02/01 11:24:05;;;;;;;10.38;2.50;;;19.50;72.50;;;;;;4934758;29;20067;-76
2022/02/01 11:26:49;;;;;;;7.18;2.35;;;19.30;75.20;;;;;;4935561;29;20019;-76
2022/02/01 11:31:54;;;;;;;5.43;2.20;;;19.00;79.20;;;;;;4935581;29;20396;-77
2022/02/01 11:34:34;;;;;;;4.30;2.03;;;18.90;79.20;;;;;;4935078;29;20058;-76
2022/02/01 11:37:10;;;;;;;3.50;2.55;;;19.00;76.50;;;;;;4917667;29;20022;-76
2022/02/01 11:39:48;;;;;;;14.80;3.92;;;19.10;77.20;;;;;;4937511;29;20123;-76
2022/02/01 11:42:16;;;;;;;8.32;2.67;;;18.90;80.80;;;;;;4939174;29;20094;-76
2022/02/01 11:44:42;;;;;;;5.88;2.53;;;18.90;80.90;;;;;;4938871;29;20032;-76
2022/02/01 11:47:11;;;;;;;5.68;3.30;;;18.90;79.60;;;;;;4938779;29;20032;-76
2022/02/01 11:49:58;;;;;;;5.38;3.25;;;18.40;86.00;;;;;;4939115;29;20136;-76
2022/02/01 11:52:26;;;;;;;7.50;4.38;;;17.40;90.10;;;;;;4938568;29;20032;-79
2022/02/01 11:55:07;;;;;;;10.50;4.90;;;16.90;91.10;;;;;;4922317;29;20090;-76
2022/02/01 11:57:33;;;;;;;9.43;4.25;;;16.40;92.10;;;;;;4938292;29;20039;-76
2022/02/01 12:00:07;;;;;;;6.82;4.38;;;16.40;92.60;;;;;;4939373;29;20032;-75
2022/02/01 12:02:40;;;;;;;6.45;3.80;;;16.40;91.80;;;;;;4938806;29;20023;-76
2022/02/01 12:05:15;;;;;;;11.77;4.90;;;16.40;91.70;;;;;;4938732;29;20052;-75
2022/02/01 12:07:42;;;;;;;16.25;4.82;;;16.40;92.10;;;;;;4937975;29;20043;-76
2022/02/01 12:10:13;;;;;;;12.68;4.55;;;16.30;92.40;;;;;;4938350;29;20043;-75
2022/02/01 12:12:39;;;;;;;8.25;4.20;;;16.10;92.60;;;;;;4938510;29;20051;-75
2022/02/01 12:15:05;;;;;;;6.70;4.22;;;15.90;91.60;;;;;;4937217;29;20473;-74
2022/02/01 12:17:34;;;;;;;6.80;4.47;;;15.70;92.30;;;;;;4919990;29;20051;-74
2022/02/01 12:20:04;;;;;;;11.38;4.05;;;15.40;92.30;;;;;;4936708;29;20059;-75
2022/02/01 12:22:33;;;;;;;4.80;3.20;;;15.10;90.40;;;;;;4937654;29;20031;-75
2022/02/01 12:25:07;;;;;;;7.50;2.90;;;14.60;85.50;;;;;;4937475;29;20044;-75
2022/02/01 12:27:45;;;;;;;4.65;3.35;;;14.40;83.50;;;;;;4937623;29;20022;-75
2022/02/01 12:30:13;;;;;;;3.95;2.72;;;14.00;80.30;;;;;;4937394;29;20067;-75
2022/02/01 12:32:52;;;;;;;4.32;2.63;;;13.80;79.20;;;;;;4937484;29;20024;-77
2022/02/01 12:35:37;;;;;;;5.80;3.70;;;13.70;79.00;;;;;;4937363;29;20062;-74
2022/02/01 12:38:25;;;;;;;5.93;3.60;;;13.60;79.20;;;;;;4937579;29;20027;-75
2022/02/01 12:40:53;;;;;;;5.03;3.15;;;13.50;79.40;;;;;;4937676;29;20083;-75
2022/02/01 12:43:23;;;;;;;4.35;2.75;;;13.20;79.20;;;;;;4937307;29;20038;-75
2022/02/01 12:48:48;;;;;;;5.25;3.10;;;13.10;76.40;;;;;;4937466;29;20076;-75
2022/02/01 12:51:15;;;;;;;4.70;2.83;;;13.10;79.40;;;;;;4936969;29;20055;-74
2022/02/01 12:53:48;;;;;;;5.40;2.92;;;13.10;79.40;;;;;;4936226;29;20031;-76
2022/02/01 12:56:19;;;;;;;4.57;3.13;;;12.90;79.40;;;;;;4936100;29;20440;-76
2022/02/01 12:58:55;;;;;;;5.25;3.33;;;12.80;79.50;;;;;;4937140;29;20050;-76
2022/02/01 13:01:38;;;;;;;5.25;2.90;;;12.60;80.00;;;;;;4936537;29;20064;-75
2022/02/01 13:04:05;;;;;;;5.95;2.90;;;12.50;80.30;;;;;;4936822;29;20028;-75
2022/02/01 13:06:40;;;;;;;4.55;2.80;;;12.50;79.70;;;;;;4936475;29;20032;-76
2022/02/01 13:14:46;;;;;;;7.60;3.22;;;12.20;79.30;;;;;;4936577;29;20046;-77
2022/02/01 13:17:38;;;;;;;6.80;2.95;;;12.20;79.60;;;;;;4935677;29;20079;-77
2022/02/01 13:20:12;;;;;;;5.68;3.13;;;12.20;80.60;;;;;;4935874;29;20030;-77
2022/02/01 13:22:55;;;;;;;4.97;2.92;;;12.20;81.00;;;;;;4935411;29;20032;-78
2022/02/01 13:25:31;;;;;;;7.15;3.03;;;12.10;79.70;;;;;;4935495;29;20515;-77
2022/02/01 13:27:58;;;;;;;6.30;2.92;;;12.10;80.10;;;;;;4930967;29;20028;-76
2022/02/01 13:30:24;;;;;;;4.45;2.95;;;12.10;80.00;;;;;;4917812;29;20477;-76
2022/02/01 13:32:51;;;;;;;9.45;2.95;;;12.00;79.40;;;;;;4936506;29;20039;-75
2022/02/01 13:35:16;;;;;;;3.45;2.60;;;12.00;79.20;;;;;;4936043;29;20476;-77
2022/02/01 13:37:49;;;;;;;3.92;2.55;;;12.00;79.10;;;;;;4936318;29;20027;-76
2022/02/01 13:40:27;;;;;;;5.03;3.00;;;12.00;79.30;;;;;;4935998;29;20031;-77
2022/02/01 13:42:57;;;;;;;3.40;2.60;;;12.00;79.20;;;;;;4929409;29;20032;-78
2022/02/01 13:45:34;;;;;;;7.05;2.92;;;12.00;79.10;;;;;;4934633;29;20048;-78
2022/02/01 13:48:00;;;;;;;5.35;2.72;;;12.00;78.80;;;;;;4916399;29;20054;-78
2022/02/01 13:50:27;;;;;;;8.10;2.72;;;12.10;78.80;;;;;;4935062;29;20509;-77
2022/02/01 13:53:00;;;;;;;7.63;3.00;;;12.10;79.70;;;;;;4935055;29;20042;-77
2022/02/01 13:55:30;;;;;;;3.60;2.70;;;12.10;80.30;;;;;;4934244;29;20102;-77
2022/02/01 13:58:10;;;;;;;9.45;3.03;;;12.10;80.70;;;;;;4935780;29;20024;-77
2022/02/01 14:00:39;;;;;;;5.93;2.22;;;12.10;80.10;;;;;;4917739;29;20094;-77
2022/02/01 14:03:17;;;;;;;7.25;2.70;;;12.00;79.60;;;;;;4934991;29;20024;-78
2022/02/01 14:05:45;;;;;;;7.55;2.60;;;12.00;79.60;;;;;;4934781;29;20488;-77
2022/02/01 14:10:55;;;;;;;4.57;2.50;;;12.00;80.10;;;;;;4935452;29;20480;-79
2022/02/01 14:13:53;;;;;;;4.65;2.55;;;12.00;79.50;;;;;;4934436;29;20042;-77
2022/02/01 14:34:37;;;;;;;6.65;2.60;;;11.90;79.10;;;;;;4936456;29;20130;-77
2022/02/01 14:37:13;;;;;;;3.97;2.67;;;11.90;79.20;;;;;;4935988;29;20027;-77
2022/02/01 14:45:08;;;;;;;6.07;2.72;;;11.80;79.90;;;;;;4935219;29;20094;-76
2022/02/01 14:47:34;;;;;;;8.63;2.67;;;11.80;80.10;;;;;;4935152;29;20483;-76